EHAM/AMS METAR and TAF weather

Enter ICAO airport designator
Station Type Date Time Source
EHAM METAR 2019/02/23 03:25 UTC NOAA

EHAM 230325Z 11008KT 6000 NSC 06/05 Q1037 TEMPO 4500 BR


Station Type Date Time Source
EHAM Decoded METAR 2019/02/23 03:25 UTC NOAA

Amsterdam Airport Schiphol, Netherlands (EHAM) 52-18N 004-46E -2M
Feb 22, 2019 - 10:25 PM EST / 2019.02.23 0325 UTC
Wind: from the ESE (110 degrees) at 9 MPH (8 KT):0
Visibility: 3 mile(s):0
Temperature: 42 F (6 C)
Dew Point: 41 F (5 C)
Relative Humidity: 93%
Pressure (altimeter): 30.62 in. Hg (1037 hPa)
ob: EHAM 230325Z 11008KT 6000 NSC 06/05 Q1037 TEMPO 4500 BR
cycle: 3

Station Type Date Time Source
EHAM TAF 2019/02/22 18:27 UTC NOAA

TAF TAF EHAM 221659Z 2218/2324 11006KT 9999 BKN018
BECMG 2221/2224 CAVOK PROB30 2222/2308 5000 BR
BECMG 2307/2310 14009KT


Example: see airport list